LCA weather

Larnaca International Airport
Larnarca, Larnarca District, Cyprus

Public forecast

Using degrees Celsius for public forecast. Weather courtesy of forecast.io.

Current aviation weather report (METAR) for Larnaca International Airport

Retrieved 2019/10/19 21:30 UTC (9 minutes ago):

LCLK 192130Z 30005KT 260V330 CAVOK 23/18 Q1016 NOSIG

Aviation forecast (TAF) for Larnaca International Airport

Retrieved 2019/10/19 18:30 UTC (3 hours ago):

TAF LCLK 191730Z 1918/2018 33007KT 9999 FEW030 BECMG 2009/2012 21012KT PROB30 TEMPO 2011/2015 VCSH TS FEW035CB BECMG 2015/2018 33008KT